Terminal Aerodrome Forecast
Issued by NWS Shreveport, LA

Home | Current Version | Previous Version | Text Only | Print | Product List | Glossary On
Versions: 1 2 3 4 5 6 7 8 9 10 11 12 13 14 15 16 17 18 19
000
FTUS44 KSHV 281100 RRA
TAFTYR
TAF
KTYR 281140Z 2812/2912 35007KT P6SM OVC035
      TEMPO 2812/2815 4SM -RA BR OVC025
     FM281500 35006KT P6SM BKN015 OVC025
     FM281800 33005KT P6SM OVC050
     FM290300 00000KT P6SM BKN250=

USA.gov is the U.S. government's official web portal to all federal, state and local government web resources and services.